createdAt,value
2023-03-28T00:00:18.992Z,101628.41
2023-03-28T00:02:46.558Z,101633.34
2023-03-28T00:05:14.814Z,101643.88
2023-03-28T00:07:42.590Z,101649.25
2023-03-28T00:10:10.947Z,101660.22
2023-03-28T00:12:38.415Z,101652.69
2023-03-28T00:15:07.126Z,101647.56
2023-03-28T00:17:36.001Z,101658.94
2023-03-28T00:20:05.604Z,101666.63
2023-03-28T00:22:34.317Z,101664.94
2023-03-28T00:25:02.924Z,101667.16
2023-03-28T00:27:30.977Z,101668.72
2023-03-28T00:29:59.272Z,101671.56
2023-03-28T00:32:26.925Z,101663.91
2023-03-28T00:34:56.162Z,101672.72
2023-03-28T00:37:24.264Z,101674.72
2023-03-28T00:39:51.733Z,101675.47
2023-03-28T00:42:20.313Z,101676.09
2023-03-28T00:44:49.949Z,101680.31
2023-03-28T00:47:27.597Z,101678.72
2023-03-28T00:49:59.234Z,101675.34
2023-03-28T00:52:30.361Z,101684.91
2023-03-28T00:54:58.470Z,101693.84
2023-03-28T00:57:26.851Z,101692.78
2023-03-28T00:59:54.584Z,101696.88
2023-03-28T01:02:22.380Z,101694.91
2023-03-28T01:04:53.568Z,101696.38
2023-03-28T01:07:22.492Z,101694.06
2023-03-28T01:09:50.161Z,101693.44
2023-03-28T01:12:18.778Z,101693.44
2023-03-28T01:14:46.494Z,101690.38
2023-03-28T01:17:15.932Z,101696.06
2023-03-28T01:20:02.656Z,101691.63
2023-03-28T01:23:05.674Z,101698.59
2023-03-28T01:25:56.337Z,101699.75
2023-03-28T01:28:36.362Z,101699.22
2023-03-28T01:31:48.335Z,101700.25
2023-03-28T01:34:53.443Z,101691.75
2023-03-28T01:37:26.912Z,101695.41
2023-03-28T01:40:05.918Z,101691.44
2023-03-28T01:42:38.139Z,101696.28
2023-03-28T01:45:14.894Z,101692.91
2023-03-28T01:47:44.839Z,101699.09
2023-03-28T01:50:18.164Z,101699.63
2023-03-28T01:52:49.108Z,101702.75
2023-03-28T01:55:20.289Z,101700.75
2023-03-28T01:57:52.170Z,101701.84
2023-03-28T02:00:22.244Z,101707.69
2023-03-28T02:02:54.108Z,101699.22
2023-03-28T02:05:23.501Z,101708.47
2023-03-28T02:07:53.444Z,101708.72
2023-03-28T02:10:24.101Z,101709.50
2023-03-28T02:12:55.660Z,101706.34
2023-03-28T02:15:24.753Z,101701.63
2023-03-28T02:17:58.112Z,101708.16
2023-03-28T02:20:27.956Z,101717.28
2023-03-28T02:23:00.358Z,101699.84
2023-03-28T02:25:27.948Z,101702.06
2023-03-28T02:27:57.818Z,101702.69
2023-03-28T02:30:25.358Z,101703.19
2023-03-28T02:32:53.721Z,101701.75
2023-03-28T02:35:26.458Z,101698.06
2023-03-28T02:38:03.008Z,101699.66
2023-03-28T02:40:38.130Z,101696.88
2023-03-28T02:43:27.367Z,101703.19
2023-03-28T02:46:10.574Z,101695.22
2023-03-28T02:48:49.124Z,101695.22
2023-03-28T02:51:23.569Z,101686.59
2023-03-28T02:53:59.284Z,101694.16
2023-03-28T02:56:31.890Z,101691.63
2023-03-28T02:59:02.028Z,101692.28
2023-03-28T03:01:29.979Z,101689.44
2023-03-28T03:03:58.311Z,101693.19
2023-03-28T03:06:26.038Z,101696.28
2023-03-28T03:08:54.988Z,101701.72
2023-03-28T03:11:22.499Z,101692.69
2023-03-28T03:13:49.966Z,101689.75
2023-03-28T03:16:18.463Z,101688.72
2023-03-28T03:18:46.297Z,101687.97
2023-03-28T03:21:13.773Z,101692.81
2023-03-28T03:23:41.227Z,101691.03
2023-03-28T03:26:10.788Z,101681.22
2023-03-28T03:28:39.586Z,101686.75
2023-03-28T03:31:08.060Z,101681.09
2023-03-28T03:33:37.601Z,101686.97
2023-03-28T03:36:05.875Z,101685.53
2023-03-28T03:38:33.392Z,101685.09
2023-03-28T03:41:01.188Z,101695.19
2023-03-28T03:43:30.083Z,101707.97
2023-03-28T03:46:00.263Z,101700.53
2023-03-28T03:48:27.929Z,101706.28
2023-03-28T03:50:55.550Z,101715.72
2023-03-28T03:53:22.996Z,101716.22
2023-03-28T03:55:50.496Z,101707.59
2023-03-28T03:58:20.348Z,101699.81
2023-03-28T04:00:49.628Z,101693.19
2023-03-28T04:03:23.876Z,101703.53
2023-03-28T04:05:54.858Z,101709.88
2023-03-28T04:08:22.347Z,101716.78
2023-03-28T04:10:50.309Z,101703.63
2023-03-28T04:13:17.866Z,101716.75
2023-03-28T04:15:47.423Z,101715.03
2023-03-28T04:18:17.931Z,101720.69
2023-03-28T04:20:47.244Z,101728.19
2023-03-28T04:23:18.349Z,101729.44
2023-03-28T04:25:45.870Z,101738.69
2023-03-28T04:28:13.352Z,101738.69
2023-03-28T04:30:41.585Z,101741.31
2023-03-28T04:33:09.102Z,101735.53
2023-03-28T04:35:38.032Z,101735.78
2023-03-28T04:38:05.885Z,101742.69
2023-03-28T04:40:33.448Z,101749.78
2023-03-28T04:43:00.960Z,101746.44
2023-03-28T04:45:28.564Z,101742.63
2023-03-28T04:47:56.128Z,101734.63
2023-03-28T04:50:23.960Z,101736.91
2023-03-28T04:52:52.948Z,101737.66
2023-03-28T04:55:20.421Z,101738.31
2023-03-28T04:57:48.094Z,101749.44
2023-03-28T05:00:16.818Z,101745.13
2023-03-28T05:02:44.746Z,101746.06
2023-03-28T05:05:12.374Z,101753.38
2023-03-28T05:07:39.908Z,101765.69
2023-03-28T05:10:11.263Z,101762.34
2023-03-28T05:12:40.504Z,101766.53
2023-03-28T05:15:08.766Z,101774.22
2023-03-28T05:17:37.105Z,101766.69
2023-03-28T05:20:09.256Z,101770.09
2023-03-28T05:22:37.029Z,101770.75
2023-03-28T05:25:04.632Z,101771.00
2023-03-28T05:27:33.618Z,101776.00
2023-03-28T05:30:01.363Z,101777.72
2023-03-28T05:32:29.074Z,101776.53
2023-03-28T05:34:56.691Z,101785.56
2023-03-28T05:37:24.416Z,101783.34
2023-03-28T05:39:56.116Z,101791.94
2023-03-28T05:42:23.677Z,101787.22
2023-03-28T05:44:52.547Z,101799.63
2023-03-28T05:47:20.305Z,101802.78
2023-03-28T05:49:47.944Z,101802.91
2023-03-28T05:52:15.742Z,101800.91
2023-03-28T05:54:50.562Z,101793.63
2023-03-28T05:57:20.375Z,101805.91
2023-03-28T05:59:48.553Z,101808.44
2023-03-28T06:02:20.090Z,101813.66
2023-03-28T06:04:48.594Z,101810.13
2023-03-28T06:07:16.582Z,101800.56
2023-03-28T06:09:44.064Z,101813.06
2023-03-28T06:12:11.533Z,101812.16
2023-03-28T06:14:39.029Z,101815.19
2023-03-28T06:17:07.905Z,101816.78
2023-03-28T06:19:36.871Z,101816.59
2023-03-28T06:22:04.412Z,101822.38
2023-03-28T06:24:31.933Z,101816.28
2023-03-28T06:26:59.640Z,101817.41
2023-03-28T06:29:27.222Z,101819.38
2023-03-28T06:31:54.857Z,101823.78
2023-03-28T06:34:22.527Z,101820.78
2023-03-28T06:36:51.445Z,101826.72
2023-03-28T06:39:19.018Z,101831.31
2023-03-28T06:41:46.487Z,101826.50
2023-03-28T06:44:14.013Z,101824.06
2023-03-28T06:46:41.523Z,101830.44
2023-03-28T06:49:09.130Z,101833.06
2023-03-28T06:51:36.672Z,101836.22
2023-03-28T06:54:05.544Z,101837.41
2023-03-28T06:56:33.425Z,101835.44
2023-03-28T06:59:00.898Z,101838.84
2023-03-28T07:01:28.507Z,101848.03
2023-03-28T07:03:59.243Z,101836.72
2023-03-28T07:06:27.707Z,101837.97
2023-03-28T07:08:55.337Z,101836.53
2023-03-28T07:11:24.247Z,101836.84
2023-03-28T07:13:51.822Z,101838.84
2023-03-28T07:16:19.314Z,101841.16
2023-03-28T07:18:46.826Z,101837.81
2023-03-28T07:21:16.051Z,101834.44
2023-03-28T07:23:44.680Z,101832.66
2023-03-28T07:26:13.204Z,101839.38
2023-03-28T07:28:42.463Z,101837.63
2023-03-28T07:31:10.027Z,101849.19
2023-03-28T07:33:38.670Z,101854.66
2023-03-28T07:36:11.601Z,101858.22
2023-03-28T07:38:39.649Z,101865.59
2023-03-28T07:41:07.894Z,101860.53
2023-03-28T07:43:35.917Z,101857.38
2023-03-28T07:46:06.834Z,101860.75
2023-03-28T07:48:34.950Z,101866.34
2023-03-28T07:51:02.664Z,101857.28
2023-03-28T07:53:30.285Z,101863.91
2023-03-28T07:55:57.745Z,101866.84
2023-03-28T07:58:25.487Z,101870.94
2023-03-28T08:00:57.407Z,101871.91
2023-03-28T08:03:28.167Z,101875.63
2023-03-28T08:05:55.864Z,101879.06
2023-03-28T08:08:23.443Z,101881.31
2023-03-28T08:10:51.404Z,101874.25
2023-03-28T08:13:20.782Z,101884.88
2023-03-28T08:15:53.613Z,101882.75
2023-03-28T08:18:22.577Z,101878.50
2023-03-28T08:20:53.209Z,101886.47
2023-03-28T08:23:20.667Z,101887.50
2023-03-28T08:25:48.111Z,101884.00
2023-03-28T08:28:15.613Z,101882.44
2023-03-28T08:30:43.081Z,101884.13
2023-03-28T08:33:10.947Z,101886.69
2023-03-28T08:35:38.929Z,101888.06
2023-03-28T08:38:10.523Z,101884.03
2023-03-28T08:40:41.296Z,101888.41
2023-03-28T08:43:22.983Z,101877.41
2023-03-28T08:45:52.464Z,101875.88
2023-03-28T08:48:23.304Z,101875.38
2023-03-28T08:50:53.194Z,101873.38
2023-03-28T08:53:30.270Z,101876.00
2023-03-28T08:55:58.542Z,101873.13
2023-03-28T08:58:28.580Z,101871.22
2023-03-28T09:00:56.268Z,101868.34
2023-03-28T09:03:25.163Z,101873.63
2023-03-28T09:05:54.710Z,101878.19
2023-03-28T09:08:41.654Z,101875.06
2023-03-28T09:11:17.579Z,101879.41
2023-03-28T09:13:51.356Z,101880.13
2023-03-28T09:16:29.150Z,101883.03
2023-03-28T09:19:10.418Z,101890.94
2023-03-28T09:21:46.904Z,101890.34
2023-03-28T09:24:28.484Z,101883.28
2023-03-28T09:27:02.324Z,101885.31
2023-03-28T09:29:32.304Z,101877.03
2023-03-28T09:32:04.284Z,101887.34
2023-03-28T09:34:38.017Z,101888.28
2023-03-28T09:37:12.619Z,101878.22
2023-03-28T09:39:43.845Z,101880.09
2023-03-28T09:42:16.745Z,101879.03
2023-03-28T09:44:54.198Z,101872.94
2023-03-28T09:47:22.728Z,101872.66
2023-03-28T09:49:56.467Z,101871.00
2023-03-28T09:52:30.580Z,101858.88
2023-03-28T09:55:00.415Z,101863.50
2023-03-28T09:57:27.909Z,101866.69
2023-03-28T09:59:58.191Z,101862.00
2023-03-28T10:02:28.721Z,101857.88
2023-03-28T10:04:56.663Z,101848.66
2023-03-28T10:07:33.061Z,101849.75
2023-03-28T10:10:14.606Z,101846.25
2023-03-28T10:12:43.572Z,101844.88
2023-03-28T10:15:31.049Z,101847.13
2023-03-28T10:18:00.782Z,101839.84
2023-03-28T10:20:28.438Z,101839.53
2023-03-28T10:22:57.092Z,101841.59
2023-03-28T10:25:34.735Z,101841.97
2023-03-28T10:28:03.990Z,101838.44
2023-03-28T10:30:32.706Z,101838.66
2023-03-28T10:33:14.974Z,101830.88
2023-03-28T10:35:45.671Z,101836.72
2023-03-28T10:38:16.250Z,101829.97
2023-03-28T10:40:52.154Z,101830.22
2023-03-28T10:43:19.659Z,101826.19
2023-03-28T10:45:50.839Z,101836.53
2023-03-28T10:48:21.612Z,101835.28
2023-03-28T10:50:50.329Z,101845.69
2023-03-28T10:53:29.436Z,101844.47
2023-03-28T10:56:07.304Z,101839.63
2023-03-28T10:58:37.142Z,101840.94
2023-03-28T11:01:10.521Z,101834.00
2023-03-28T11:03:48.920Z,101835.34
2023-03-28T11:06:20.059Z,101829.97
2023-03-28T11:08:57.366Z,101826.00
2023-03-28T11:11:48.874Z,101824.34
2023-03-28T11:14:24.006Z,101825.47
2023-03-28T11:16:56.234Z,101815.03
2023-03-28T11:19:35.709Z,101809.59
2023-03-28T11:22:07.836Z,101810.41
2023-03-28T11:24:40.559Z,101804.28
2023-03-28T11:27:16.313Z,101810.22
2023-03-28T11:29:47.530Z,101802.78
2023-03-28T11:32:18.372Z,101802.81
2023-03-28T11:34:51.869Z,101797.25
2023-03-28T11:37:22.622Z,101790.00
2023-03-28T11:39:53.741Z,101796.16
2023-03-28T11:42:27.691Z,101782.94
2023-03-28T11:45:01.765Z,101781.97
2023-03-28T11:47:33.802Z,101782.81
2023-03-28T11:50:08.024Z,101777.22
2023-03-28T11:52:38.723Z,101779.16
2023-03-28T11:55:15.197Z,101771.75
2023-03-28T11:57:52.180Z,101762.69
2023-03-28T12:00:33.369Z,101770.81
2023-03-28T12:03:09.983Z,101766.47
2023-03-28T12:05:40.482Z,101760.06
2023-03-28T12:08:11.076Z,101749.03
2023-03-28T12:10:40.279Z,101746.06
2023-03-28T12:13:13.600Z,101739.66
2023-03-28T12:15:46.285Z,101740.06
2023-03-28T12:18:17.334Z,101733.09
2023-03-28T12:20:49.516Z,101720.13
2023-03-28T12:23:24.135Z,101713.72
2023-03-28T12:25:54.998Z,101709.38
2023-03-28T12:28:28.385Z,101713.28
2023-03-28T12:31:02.189Z,101704.63
2023-03-28T12:33:38.024Z,101708.22
2023-03-28T12:36:08.534Z,101711.00
2023-03-28T12:38:40.075Z,101707.41
2023-03-28T12:41:09.205Z,101708.78
2023-03-28T12:43:43.419Z,101692.44
2023-03-28T12:46:13.823Z,101695.31
2023-03-28T12:48:43.585Z,101694.34
2023-03-28T12:51:16.075Z,101695.47
2023-03-28T12:53:48.402Z,101704.94
2023-03-28T12:56:16.791Z,101687.22
2023-03-28T12:58:48.818Z,101695.88
2023-03-28T13:01:35.668Z,101693.38
2023-03-28T13:04:11.149Z,101686.47
2023-03-28T13:06:47.314Z,101682.31
2023-03-28T13:09:32.939Z,101678.03
2023-03-28T13:12:05.865Z,101677.81
2023-03-28T13:14:40.769Z,101674.94
2023-03-28T13:17:26.351Z,101677.81
2023-03-28T13:19:55.763Z,101676.38
2023-03-28T13:22:29.632Z,101660.38
2023-03-28T13:25:21.021Z,101658.28
2023-03-28T13:27:49.403Z,101652.63
2023-03-28T13:30:20.009Z,101638.50
2023-03-28T13:32:50.457Z,101640.66
2023-03-28T13:35:40.253Z,101642.47
2023-03-28T13:38:24.895Z,101634.88
2023-03-28T13:40:55.658Z,101628.56
2023-03-28T13:43:26.028Z,101624.91
2023-03-28T13:45:58.428Z,101615.09
2023-03-28T13:48:31.494Z,101606.16
2023-03-28T13:51:00.735Z,101613.66
2023-03-28T13:53:40.892Z,101600.97
2023-03-28T13:56:19.850Z,101593.47
2023-03-28T13:58:49.915Z,101594.66
2023-03-28T14:01:20.673Z,101594.97
2023-03-28T14:03:48.998Z,101583.06
2023-03-28T14:06:22.370Z,101583.75
2023-03-28T14:08:50.927Z,101575.19
2023-03-28T14:11:21.020Z,101575.03
2023-03-28T14:13:49.155Z,101574.06
2023-03-28T14:16:19.197Z,101569.19
2023-03-28T14:18:48.181Z,101565.09
2023-03-28T14:21:15.854Z,101561.44
2023-03-28T14:23:54.342Z,101563.41
2023-03-28T14:26:23.458Z,101557.00
2023-03-28T14:28:51.966Z,101569.78
2023-03-28T14:31:30.804Z,101566.53
2023-03-28T14:33:59.353Z,101554.84
2023-03-28T14:36:30.642Z,101546.53
2023-03-28T14:39:13.349Z,101553.47
2023-03-28T14:41:42.282Z,101552.88
2023-03-28T14:44:09.793Z,101545.03
2023-03-28T14:46:38.647Z,101542.19
2023-03-28T14:49:09.929Z,101537.97
2023-03-28T14:51:42.027Z,101536.72
2023-03-28T14:54:15.538Z,101533.41
2023-03-28T14:56:44.177Z,101525.38
2023-03-28T14:59:16.277Z,101521.84
2023-03-28T15:01:47.590Z,101512.22
2023-03-28T15:04:16.096Z,101507.44
2023-03-28T15:06:43.576Z,101505.72
2023-03-28T15:09:16.189Z,101497.25
2023-03-28T15:11:44.452Z,101488.88
2023-03-28T15:14:15.354Z,101479.75
2023-03-28T15:16:45.779Z,101491.50
2023-03-28T15:19:18.661Z,101487.00
2023-03-28T15:21:52.809Z,101480.88
2023-03-28T15:24:20.552Z,101475.31
2023-03-28T15:26:50.955Z,101466.13
2023-03-28T15:29:20.201Z,101464.56
2023-03-28T15:31:49.656Z,101461.91
2023-03-28T15:34:21.512Z,101464.00
2023-03-28T15:36:57.126Z,101460.31
2023-03-28T15:39:26.164Z,101446.13
2023-03-28T15:41:55.584Z,101442.69
2023-03-28T15:44:27.719Z,101444.53
2023-03-28T15:46:59.420Z,101445.88
2023-03-28T15:49:27.080Z,101443.75
2023-03-28T15:51:56.428Z,101441.66
2023-03-28T15:54:31.187Z,101433.94
2023-03-28T15:57:02.254Z,101431.13
2023-03-28T15:59:33.895Z,101434.38
2023-03-28T16:02:29.263Z,101431.69
2023-03-28T16:05:01.740Z,101431.75
2023-03-28T16:07:35.108Z,101426.09
2023-03-28T16:10:02.658Z,101421.84
2023-03-28T16:12:30.154Z,101412.38
2023-03-28T16:14:57.616Z,101411.34
2023-03-28T16:17:28.676Z,101405.50
2023-03-28T16:19:56.466Z,101407.91
2023-03-28T16:22:24.293Z,101404.34
2023-03-28T16:24:52.924Z,101410.16
2023-03-28T16:27:21.437Z,101412.25
2023-03-28T16:29:49.246Z,101409.34
2023-03-28T16:32:17.224Z,101403.97
2023-03-28T16:34:46.085Z,101386.56
2023-03-28T16:37:13.617Z,101386.53
2023-03-28T16:39:41.407Z,101377.50
2023-03-28T16:42:09.016Z,101370.47
2023-03-28T16:44:36.725Z,101366.25
2023-03-28T16:47:04.289Z,101366.78
2023-03-28T16:49:32.075Z,101356.63
2023-03-28T16:52:01.084Z,101357.66
2023-03-28T16:54:28.749Z,101354.06
2023-03-28T16:56:56.317Z,101349.38
2023-03-28T16:59:24.000Z,101339.22
2023-03-28T17:01:52.092Z,101340.34
2023-03-28T17:04:19.600Z,101335.03
2023-03-28T17:06:47.151Z,101340.13
2023-03-28T17:09:16.077Z,101332.50
2023-03-28T17:11:43.693Z,101329.69
2023-03-28T17:14:11.341Z,101327.72
2023-03-28T17:16:40.275Z,101321.47
2023-03-28T17:19:08.168Z,101323.97
2023-03-28T17:21:35.828Z,101311.78
2023-03-28T17:24:03.647Z,101308.16
2023-03-28T17:26:32.425Z,101310.72
2023-03-28T17:28:59.868Z,101303.22
2023-03-28T17:31:27.773Z,101302.81
2023-03-28T17:33:55.506Z,101310.72
2023-03-28T17:36:24.799Z,101297.34
2023-03-28T17:38:53.854Z,101310.41
2023-03-28T17:41:23.012Z,101300.72
2023-03-28T17:43:52.199Z,101303.72
2023-03-28T17:46:19.693Z,101298.41
2023-03-28T17:48:47.137Z,101302.38
2023-03-28T17:51:15.493Z,101303.91
2023-03-28T17:53:46.451Z,101303.41
2023-03-28T17:56:14.467Z,101297.28
2023-03-28T17:58:42.102Z,101294.50
2023-03-28T18:01:12.606Z,101295.41
2023-03-28T18:03:40.827Z,101299.34
2023-03-28T18:06:08.988Z,101298.50
2023-03-28T18:08:36.660Z,101302.38
2023-03-28T18:11:07.211Z,101293.75
2023-03-28T18:13:35.364Z,101296.31
2023-03-28T18:16:04.335Z,101292.28
2023-03-28T18:18:34.057Z,101300.00
2023-03-28T18:21:01.547Z,101295.69
2023-03-28T18:23:28.965Z,101285.16
2023-03-28T18:25:56.523Z,101292.34
2023-03-28T18:28:24.259Z,101286.28
2023-03-28T18:30:52.105Z,101297.97
2023-03-28T18:33:19.895Z,101292.44
2023-03-28T18:35:48.984Z,101297.19
2023-03-28T18:38:16.590Z,101294.50
2023-03-28T18:40:44.308Z,101295.09
2023-03-28T18:43:11.913Z,101291.56
2023-03-28T18:45:39.422Z,101287.47
2023-03-28T18:48:08.771Z,101284.84
2023-03-28T18:50:36.688Z,101288.53
2023-03-28T18:53:05.848Z,101292.19
2023-03-28T18:55:33.383Z,101288.03
2023-03-28T18:58:04.383Z,101279.53
2023-03-28T19:00:32.262Z,101278.16
2023-03-28T19:02:59.849Z,101279.97
2023-03-28T19:05:27.376Z,101284.47
2023-03-28T19:07:55.474Z,101279.47
2023-03-28T19:10:24.274Z,101275.81
2023-03-28T19:12:53.107Z,101278.88
2023-03-28T19:15:21.987Z,101284.16
2023-03-28T19:17:49.845Z,101278.03
2023-03-28T19:20:17.393Z,101278.16
2023-03-28T19:22:44.848Z,101278.16
2023-03-28T19:25:12.481Z,101273.56
2023-03-28T19:27:43.620Z,101269.78
2023-03-28T19:30:11.550Z,101269.06
2023-03-28T19:32:39.148Z,101264.78
2023-03-28T19:35:07.696Z,101256.41
2023-03-28T19:37:35.168Z,101257.97
2023-03-28T19:40:08.841Z,101260.50
2023-03-28T19:42:37.489Z,101260.66
2023-03-28T19:45:07.914Z,101265.97
2023-03-28T19:47:35.424Z,101263.00
2023-03-28T19:50:04.247Z,101261.22
2023-03-28T19:52:31.797Z,101256.78
2023-03-28T19:54:59.297Z,101264.44
2023-03-28T19:57:26.949Z,101250.13
2023-03-28T19:59:54.474Z,101260.03
2023-03-28T20:02:23.303Z,101267.00
2023-03-28T20:04:50.832Z,101265.75
2023-03-28T20:07:19.258Z,101271.19
2023-03-28T20:09:49.002Z,101267.97
2023-03-28T20:12:16.632Z,101261.81
2023-03-28T20:14:44.112Z,101265.47
2023-03-28T20:17:12.237Z,101272.47
2023-03-28T20:19:41.028Z,101276.72
2023-03-28T20:22:08.479Z,101278.47
2023-03-28T20:24:35.990Z,101265.50
2023-03-28T20:27:03.567Z,101258.59
2023-03-28T20:29:31.835Z,101261.28
2023-03-28T20:32:00.543Z,101260.91
2023-03-28T20:34:28.287Z,101280.72
2023-03-28T20:36:57.192Z,101270.13
2023-03-28T20:39:27.657Z,101265.94
2023-03-28T20:41:55.480Z,101268.56
2023-03-28T20:44:22.923Z,101272.09
2023-03-28T20:46:50.403Z,101259.91
2023-03-28T20:49:20.237Z,101264.63
2023-03-28T20:51:50.234Z,101273.94
2023-03-28T20:54:21.663Z,101271.97
2023-03-28T20:56:50.103Z,101271.22
2023-03-28T20:59:17.814Z,101275.41
2023-03-28T21:01:47.731Z,101261.31
2023-03-28T21:04:15.416Z,101259.84
2023-03-28T21:06:44.867Z,101252.41
2023-03-28T21:09:16.010Z,101250.56
2023-03-28T21:11:45.311Z,101235.28
2023-03-28T21:14:14.555Z,101222.84
2023-03-28T21:16:42.247Z,101213.81
2023-03-28T21:19:09.815Z,101214.69
2023-03-28T21:21:37.462Z,101206.75
2023-03-28T21:24:07.094Z,101195.69
2023-03-28T21:26:35.820Z,101200.84
2023-03-28T21:29:04.834Z,101196.78
2023-03-28T21:31:32.350Z,101186.78
2023-03-28T21:34:00.857Z,101187.44
2023-03-28T21:36:28.755Z,101190.00
2023-03-28T21:38:56.987Z,101194.00
2023-03-28T21:41:24.588Z,101190.63
2023-03-28T21:43:53.622Z,101191.59
2023-03-28T21:46:22.605Z,101189.97
2023-03-28T21:48:50.253Z,101188.56
2023-03-28T21:51:17.919Z,101197.44
2023-03-28T21:53:45.670Z,101185.41
2023-03-28T21:56:14.750Z,101192.06
2023-03-28T21:58:42.408Z,101192.00
2023-03-28T22:01:12.820Z,101187.50
2023-03-28T22:03:41.873Z,101198.09
2023-03-28T22:06:10.128Z,101199.31
2023-03-28T22:08:37.755Z,101193.34
2023-03-28T22:11:13.322Z,101192.50
2023-03-28T22:13:41.064Z,101193.09
2023-03-28T22:16:12.896Z,101200.16
2023-03-28T22:18:49.812Z,101208.19
2023-03-28T22:21:17.677Z,101194.13
2023-03-28T22:23:47.406Z,101195.50
2023-03-28T22:26:15.657Z,101198.56
2023-03-28T22:28:43.089Z,101184.75
2023-03-28T22:31:11.209Z,101169.63
2023-03-28T22:33:39.161Z,101167.38
2023-03-28T22:36:09.451Z,101157.94
2023-03-28T22:38:37.474Z,101164.25
2023-03-28T22:41:05.277Z,101161.41
2023-03-28T22:43:33.378Z,101166.19
2023-03-28T22:46:00.840Z,101165.75
2023-03-28T22:48:29.861Z,101170.31
2023-03-28T22:50:58.693Z,101171.28
2023-03-28T22:53:27.944Z,101170.03
2023-03-28T22:55:57.522Z,101165.91
2023-03-28T22:58:25.210Z,101162.47
2023-03-28T23:00:54.717Z,101160.47
2023-03-28T23:03:22.232Z,101167.00
2023-03-28T23:05:51.449Z,101160.34
2023-03-28T23:08:19.184Z,101161.06
2023-03-28T23:10:48.848Z,101154.75
2023-03-28T23:13:16.577Z,101155.03
2023-03-28T23:15:44.683Z,101148.19
2023-03-28T23:18:12.193Z,101149.63
2023-03-28T23:20:39.636Z,101145.78
2023-03-28T23:23:08.794Z,101142.13
2023-03-28T23:25:37.003Z,101141.28
2023-03-28T23:28:05.874Z,101144.91
2023-03-28T23:30:33.395Z,101151.66
2023-03-28T23:33:01.823Z,101146.38
2023-03-28T23:35:29.473Z,101139.06
2023-03-28T23:37:56.957Z,101133.25
2023-03-28T23:40:24.477Z,101125.34
2023-03-28T23:42:51.917Z,101115.59
2023-03-28T23:45:20.714Z,101115.75
2023-03-28T23:47:48.242Z,101113.25
2023-03-28T23:50:15.919Z,101108.25
2023-03-28T23:52:43.385Z,101112.97
2023-03-28T23:55:10.836Z,101110.59
2023-03-28T23:57:38.296Z,101094.59
